Buoy 43533

sailwx.info

Track history (hours):
 
Tides and Currents Weather Stations Pressure Air Temp Water Temp Dewpoint Dewpoint Depression Visibility Wind Speed Wind Dir Waves Ship Positions

Drifting buoy 43533

Last reported at 2017-Sep-21 18:00 UTC. Time now 2017-Sep-21 23:09 UTC.
Position N 14°27' W 122°17'.

Length 24 m.

Type: Fishing. MMSI: 412466549.

Water temperature 28.5 ° C

Date/timePositionNaut miles runAvg speedWind from/ knotsBaromVisibWave heightAir tempDewpointWater temp
2017-Sep-21 18:00N 14°27' W 122°17'0 0.0 28.5
2017-Sep-21 17:00N 14°27' W 122°17'0 0.0 28.4
2017-Sep-21 16:00N 14°27' W 122°17'0 0.0 28.4
2017-Sep-21 15:00N 14°27' W 122°17'0 0.0 28.4
2017-Sep-21 14:00N 14°27' W 122°17'1 0.6 28.4
2017-Sep-21 12:00N 14°27' W 122°16'0 0.0 28.4
2017-Sep-21 10:00N 14°27' W 122°16'0 0.0 28.4
2017-Sep-21 09:00N 14°27' W 122°16'1 0.2 28.4
2017-Sep-21 06:00N 14°27' W 122°16'1 0.6 28.5
2017-Sep-21 05:00N 14°26' W 122°16'1 0.6 28.6
2017-Sep-21 04:00N 14°27' W 122°16'1 0.6 28.6
2017-Sep-21 03:00N 14°27' W 122°17'1 0.7 28.6
2017-Sep-21 01:00N 14°26' W 122°16'0 0.0
2017-Sep-21 00:00N 14°26' W 122°16'0 0.0 28.8
2017-Sep-20 23:00N 14°26' W 122°16'1 0.2 28.9
2017-Sep-20 19:00N 14°26' W 122°15'1 0.3 28.6
2017-Sep-20 17:00N 14°25' W 122°15'1 0.3 28.4
2017-Sep-20 15:00N 14°25' W 122°15'1 0.3 28.3
2017-Sep-20 13:00N 14°24' W 122°15'1 0.8 28.4
2017-Sep-20 12:00N 14°23' W 122°14'2 0.8 28.4
2017-Sep-20 10:00N 14°22' W 122°13'1 0.2 28.4
2017-Sep-20 06:00N 14°22' W 122°13'1 1.3 28.6
2017-Sep-20 05:00N 14°20' W 122°13'2 1.8 28.6
2017-Sep-20 04:00N 14°20' W 122°11'1 0.7 28.6
2017-Sep-20 02:00N 14°19' W 122°10'0 0.0 28.8
2017-Sep-20 01:00N 14°19' W 122°10'1 0.8 28.9
2017-Sep-20 00:00N 14°19' W 122°10'0 0.0 28.9
2017-Sep-19 23:00N 14°19' W 122°10'2 2.1 28.9
2017-Sep-19 22:00N 14°20' W 122°08'0 0.0 29.1
2017-Sep-19 21:00N 14°20' W 122°08'2 0.4 28.9
2017-Sep-19 17:00N 14°20' W 122°06'0 0.0 28.4
2017-Sep-19 15:00N 14°20' W 122°06'0 0.0 28.3
2017-Sep-19 14:00N 14°20' W 122°06'1 0.8 28.3
2017-Sep-19 13:00N 14°20' W 122°05'1 1.3 28.3
2017-Sep-19 12:00N 14°22' W 122°05'0 0.0 28.3
2017-Sep-19 11:00N 14°22' W 122°05'0 0.0 28.4
2017-Sep-19 06:00N 14°22' W 122°05'0 0.0 28.4
2017-Sep-19 05:00N 14°22' W 122°05'1 0.6 28.4
2017-Sep-19 04:00N 14°22' W 122°04'1 0.6 28.5
2017-Sep-19 03:00N 14°22' W 122°05'0 0.0 28.6
2017-Sep-19 02:00N 14°22' W 122°05'1 0.8 28.6
2017-Sep-19 01:00N 14°22' W 122°05'0 0.0 28.6
2017-Sep-19 00:00N 14°22' W 122°05'0 0.0 28.8
2017-Sep-18 23:00N 14°22' W 122°05'0 0.0 28.9
2017-Sep-18 22:00N 14°22' W 122°05'1 0.1 28.9
2017-Sep-18 18:00N 14°22' W 122°05'0 0.0 28.6
2017-Sep-18 17:00N 14°22' W 122°05'0 0.0 28.4
2017-Sep-18 16:00N 14°22' W 122°05'0 0.0 28.2
2017-Sep-18 15:00N 14°22' W 122°05'0 0.0 28.2
2017-Sep-18 14:00N 14°22' W 122°05'0 0.0 28.2
2017-Sep-18 13:00N 14°22' W 122°05'1 0.6 28.2
2017-Sep-18 12:00N 14°21' W 122°05'1 0.8 28.2
2017-Sep-18 11:00N 14°20' W 122°06'1 0.1 28.2
2017-Sep-18 06:00N 14°21' W 122°06'1 0.8 28.3
2017-Sep-18 05:00N 14°20' W 122°07'0 0.0 28.4
2017-Sep-18 04:00N 14°20' W 122°07'0 0.0 28.4
2017-Sep-18 02:00N 14°20' W 122°07'1 0.6 28.4
2017-Sep-18 01:00N 14°20' W 122°07'1 0.6 28.4
2017-Sep-18 00:00N 14°20' W 122°07'0 0.0 28.5
2017-Sep-17 22:00N 14°20' W 122°07'2 0.4 28.6
2017-Sep-17 18:00N 14°19' W 122°08'1 0.3 28.1
2017-Sep-17 16:00N 14°18' W 122°08'1 0.3 28.1
2017-Sep-17 14:00N 14°18' W 122°08'0 0.0 28.1
2017-Sep-17 13:00N 14°18' W 122°08'1 0.6 28.1
2017-Sep-17 12:00N 14°18' W 122°08'1 0.8 28.1
2017-Sep-17 11:00N 14°17' W 122°09'1 0.1 28.1
2017-Sep-17 06:00N 14°18' W 122°09'0 0.0 28.1
2017-Sep-17 05:00N 14°18' W 122°09'0 0.0 28.1
2017-Sep-17 04:00N 14°18' W 122°09'1 0.3 28.1
2017-Sep-17 02:00N 14°19' W 122°09'1 1.3 28.2
2017-Sep-17 01:00N 14°18' W 122°10'1 0.8 28.2
2017-Sep-17 00:00N 14°17' W 122°11'0 0.0 28.2
2017-Sep-16 22:00N 14°17' W 122°11'1 0.3 28.2
2017-Sep-16 18:00N 14°16' W 122°11'1 0.8 28.0
2017-Sep-16 17:00N 14°16' W 122°12'0 0.0 28.0
2017-Sep-16 16:00N 14°16' W 122°12'0 0.0 27.9
2017-Sep-16 15:00N 14°16' W 122°12'1 0.6 27.9
2017-Sep-16 14:00N 14°15' W 122°12'0 0.0 27.9
2017-Sep-16 13:00N 14°15' W 122°12'4 1.9 27.9
2017-Sep-16 11:00N 14°12' W 122°14'0 0.0 27.9
2017-Sep-16 06:00N 14°12' W 122°14'0 0.0 27.9
2017-Sep-16 05:00N 14°12' W 122°14'1 0.6 28.0
2017-Sep-16 04:00N 14°11' W 122°14'1 0.6 28.0
2017-Sep-16 03:00N 14°11' W 122°14'2 2.4 28.0
2017-Sep-16 02:00N 14°09' W 122°14'2 1.9 28.0
2017-Sep-16 01:00N 14°11' W 122°14'2 1.9 28.0
2017-Sep-16 00:00N 14°09' W 122°14'0 0.0 28.0
2017-Sep-15 23:00N 14°09' W 122°14'1 1.3 28.1
2017-Sep-15 22:00N 14°08' W 122°13'1 0.1 28.1
2017-Sep-15 17:00N 14°08' W 122°12'1 0.6 28.0
2017-Sep-15 16:00N 14°08' W 122°11'0 0.0 28.0
2017-Sep-15 14:00N 14°08' W 122°11'1 0.8 28.0
2017-Sep-15 13:00N 14°09' W 122°11'1 0.8 28.0
2017-Sep-15 12:00N 14°08' W 122°10'4 3.6 28.0
2017-Sep-15 11:00N 14°12' W 122°10'0 0.0 28.0
2017-Sep-15 06:00N 14°12' W 122°10'1 0.8 28.1
2017-Sep-15 05:00N 14°13' W 122°11'2 1.7 28.1
2017-Sep-15 04:00N 14°14' W 122°12'0 0.0 28.1
2017-Sep-15 03:00N 14°14' W 122°12'1 0.6 28.1
2017-Sep-15 02:00N 14°13' W 122°12'2 2.4 28.1
2017-Sep-15 01:00N 14°14' W 122°14'0 0.0 28.1
2017-Sep-15 00:00N 14°14' W 122°14'0 0.0 28.1
2017-Sep-14 23:00N 14°14' W 122°14'2 0.5 28.1
2017-Sep-14 18:00N 14°14' W 122°17'2 1.7 28.1
2017-Sep-14 17:00N 14°14' W 122°19'0 0.0 28.0
2017-Sep-14 16:00N 14°14' W 122°19'0 0.0 28.0
2017-Sep-14 15:00N 14°14' W 122°19'0 0.0 28.0
2017-Sep-14 14:00N 14°14' W 122°19'1 0.6 28.0
2017-Sep-14 13:00N 14°13' W 122°19'1 0.6 28.0
2017-Sep-14 12:00N 14°13' W 122°19'3 3.0 28.0
2017-Sep-14 11:00N 14°11' W 122°21'1 0.1 28.0
2017-Sep-14 06:00N 14°11' W 122°20'1 0.6 28.1
2017-Sep-14 05:00N 14°10' W 122°20'0 0.0 28.1
2017-Sep-14 04:00N 14°10' W 122°20'0 0.0 28.1
2017-Sep-14 02:00N 14°10' W 122°20'0 0.0 -0.0
2017-Sep-14 01:00N 14°10' W 122°20'2 0.9 28.1
2017-Sep-13 23:00N 14°10' W 122°22'4 0.8 28.1
2017-Sep-13 18:00N 14°11' W 122°18'1 0.6 28.1
2017-Sep-13 17:00N 14°11' W 122°19'0 0.0 28.1
2017-Sep-13 16:00N 14°11' W 122°19'0 0.0 28.1
2017-Sep-13 15:00N 14°11' W 122°19'2 1.7 28.1
2017-Sep-13 14:00N 14°11' W 122°17'0 0.0 28.1
2017-Sep-13 13:00N 14°11' W 122°17'3 2.6 28.1
2017-Sep-13 12:00N 14°12' W 122°14'0 0.0 28.2
2017-Sep-13 11:00N 14°12' W 122°14'2 2.1 28.2
2017-Sep-13 10:00N 14°13' W 122°13'2 2.1 28.2
2017-Sep-13 09:00N 14°12' W 122°14'3 1.0 28.2
2017-Sep-13 06:00N 14°14' W 122°12'1 0.6 28.2
2017-Sep-13 05:00N 14°14' W 122°11'1 0.8 28.2
2017-Sep-13 04:00N 14°14' W 122°12'1 0.3 28.2
2017-Sep-13 02:00N 14°15' W 122°12'0 0.0 28.2
2017-Sep-13 01:00N 14°15' W 122°12'2 0.9 28.3
2017-Sep-12 23:00N 14°15' W 122°10'1 0.1 28.3
2017-Sep-12 18:00N 14°15' W 122°11'1 0.8 28.3
2017-Sep-12 17:00N 14°14' W 122°10'1 0.8 28.3
2017-Sep-12 16:00N 14°14' W 122°10'1 0.6 28.3
2017-Sep-12 15:00N 14°14' W 122°09'1 0.6 28.3
2017-Sep-12 14:00N 14°14' W 122°10'1 1.3 28.3
2017-Sep-12 13:00N 14°13' W 122°08'1 0.8 28.3
2017-Sep-12 12:00N 14°13' W 122°08'1 0.6 28.3
2017-Sep-12 11:00N 14°13' W 122°08'3 2.6 28.3
2017-Sep-12 10:00N 14°12' W 122°05'0 0.0 28.3
2017-Sep-12 06:00N 14°12' W 122°05'1 0.6 28.4
2017-Sep-12 05:00N 14°12' W 122°05'0 0.0 -0.0
2017-Sep-12 04:00N 14°12' W 122°05'2 0.6 28.4
2017-Sep-12 01:00N 14°12' W 122°03'0 0.0 28.4
2017-Sep-12 00:00N 14°12' W 122°03'1 0.8 28.4
2017-Sep-11 23:00N 14°11' W 122°02'0 0.0 28.4
2017-Sep-11 22:00N 14°11' W 122°02'0 0.0 28.5
2017-Sep-11 21:00N 14°11' W 122°02'4 1.2 28.4
2017-Sep-11 18:00N 14°11' W 121°59'   28.3
Track history (hours):
 
Tides and Currents Weather Stations Pressure Air Temp Water Temp Dewpoint Dewpoint Depression Visibility Wind Speed Wind Dir Waves Ship Positions

Drifting buoy 43533

Last reported at 2017-Sep-21 18:00 UTC. Time now 2017-Sep-21 23:09 UTC.
Position N 14°27' W 122°17'.

Length 24 m.

Type: Fishing. MMSI: 412466549.

Water temperature 28.5 ° C

Date/timePositionNaut miles runAvg speedWind from/ knotsBaromVisibWave heightAir tempDewpointWater temp
2017-Sep-21 18:00N 14°27' W 122°17'0 0.0 28.5
2017-Sep-21 17:00N 14°27' W 122°17'0 0.0 28.4
2017-Sep-21 16:00N 14°27' W 122°17'0 0.0 28.4
2017-Sep-21 15:00N 14°27' W 122°17'0 0.0 28.4
2017-Sep-21 14:00N 14°27' W 122°17'1 0.6 28.4
2017-Sep-21 12:00N 14°27' W 122°16'0 0.0 28.4
2017-Sep-21 10:00N 14°27' W 122°16'0 0.0 28.4
2017-Sep-21 09:00N 14°27' W 122°16'1 0.2 28.4
2017-Sep-21 06:00N 14°27' W 122°16'1 0.6 28.5
2017-Sep-21 05:00N 14°26' W 122°16'1 0.6 28.6
2017-Sep-21 04:00N 14°27' W 122°16'1 0.6 28.6
2017-Sep-21 03:00N 14°27' W 122°17'1 0.7 28.6
2017-Sep-21 01:00N 14°26' W 122°16'0 0.0
2017-Sep-21 00:00N 14°26' W 122°16'0 0.0 28.8
2017-Sep-20 23:00N 14°26' W 122°16'1 0.2 28.9
2017-Sep-20 19:00N 14°26' W 122°15'1 0.3 28.6
2017-Sep-20 17:00N 14°25' W 122°15'1 0.3 28.4
2017-Sep-20 15:00N 14°25' W 122°15'1 0.3 28.3
2017-Sep-20 13:00N 14°24' W 122°15'1 0.8 28.4
2017-Sep-20 12:00N 14°23' W 122°14'2 0.8 28.4
2017-Sep-20 10:00N 14°22' W 122°13'1 0.2 28.4
2017-Sep-20 06:00N 14°22' W 122°13'1 1.3 28.6
2017-Sep-20 05:00N 14°20' W 122°13'2 1.8 28.6
2017-Sep-20 04:00N 14°20' W 122°11'1 0.7 28.6
2017-Sep-20 02:00N 14°19' W 122°10'0 0.0 28.8
2017-Sep-20 01:00N 14°19' W 122°10'1 0.8 28.9
2017-Sep-20 00:00N 14°19' W 122°10'0 0.0 28.9
2017-Sep-19 23:00N 14°19' W 122°10'2 2.1 28.9
2017-Sep-19 22:00N 14°20' W 122°08'0 0.0 29.1
2017-Sep-19 21:00N 14°20' W 122°08'2 0.4 28.9
2017-Sep-19 17:00N 14°20' W 122°06'0 0.0 28.4
2017-Sep-19 15:00N 14°20' W 122°06'0 0.0 28.3
2017-Sep-19 14:00N 14°20' W 122°06'1 0.8 28.3
2017-Sep-19 13:00N 14°20' W 122°05'1 1.3 28.3
2017-Sep-19 12:00N 14°22' W 122°05'0 0.0 28.3
2017-Sep-19 11:00N 14°22' W 122°05'0 0.0 28.4
2017-Sep-19 06:00N 14°22' W 122°05'0 0.0 28.4
2017-Sep-19 05:00N 14°22' W 122°05'1 0.6 28.4
2017-Sep-19 04:00N 14°22' W 122°04'1 0.6 28.5
2017-Sep-19 03:00N 14°22' W 122°05'0 0.0 28.6
2017-Sep-19 02:00N 14°22' W 122°05'1 0.8 28.6
2017-Sep-19 01:00N 14°22' W 122°05'0 0.0 28.6
2017-Sep-19 00:00N 14°22' W 122°05'0 0.0 28.8
2017-Sep-18 23:00N 14°22' W 122°05'0 0.0 28.9
2017-Sep-18 22:00N 14°22' W 122°05'1 0.1 28.9
2017-Sep-18 18:00N 14°22' W 122°05'0 0.0 28.6
2017-Sep-18 17:00N 14°22' W 122°05'0 0.0 28.4
2017-Sep-18 16:00N 14°22' W 122°05'0 0.0 28.2
2017-Sep-18 15:00N 14°22' W 122°05'0 0.0 28.2
2017-Sep-18 14:00N 14°22' W 122°05'0 0.0 28.2
2017-Sep-18 13:00N 14°22' W 122°05'1 0.6 28.2
2017-Sep-18 12:00N 14°21' W 122°05'1 0.8 28.2
2017-Sep-18 11:00N 14°20' W 122°06'1 0.1 28.2
2017-Sep-18 06:00N 14°21' W 122°06'1 0.8 28.3
2017-Sep-18 05:00N 14°20' W 122°07'0 0.0 28.4
2017-Sep-18 04:00N 14°20' W 122°07'0 0.0 28.4
2017-Sep-18 02:00N 14°20' W 122°07'1 0.6 28.4
2017-Sep-18 01:00N 14°20' W 122°07'1 0.6 28.4
2017-Sep-18 00:00N 14°20' W 122°07'0 0.0 28.5
2017-Sep-17 22:00N 14°20' W 122°07'2 0.4 28.6
2017-Sep-17 18:00N 14°19' W 122°08'1 0.3 28.1
2017-Sep-17 16:00N 14°18' W 122°08'1 0.3 28.1
2017-Sep-17 14:00N 14°18' W 122°08'0 0.0 28.1
2017-Sep-17 13:00N 14°18' W 122°08'1 0.6 28.1
2017-Sep-17 12:00N 14°18' W 122°08'1 0.8 28.1
2017-Sep-17 11:00N 14°17' W 122°09'1 0.1 28.1
2017-Sep-17 06:00N 14°18' W 122°09'0 0.0 28.1
2017-Sep-17 05:00N 14°18' W 122°09'0 0.0 28.1
2017-Sep-17 04:00N 14°18' W 122°09'1 0.3 28.1
2017-Sep-17 02:00N 14°19' W 122°09'1 1.3 28.2
2017-Sep-17 01:00N 14°18' W 122°10'1 0.8 28.2
2017-Sep-17 00:00N 14°17' W 122°11'0 0.0 28.2
2017-Sep-16 22:00N 14°17' W 122°11'1 0.3 28.2
2017-Sep-16 18:00N 14°16' W 122°11'1 0.8 28.0
2017-Sep-16 17:00N 14°16' W 122°12'0 0.0 28.0
2017-Sep-16 16:00N 14°16' W 122°12'0 0.0 27.9
2017-Sep-16 15:00N 14°16' W 122°12'1 0.6 27.9
2017-Sep-16 14:00N 14°15' W 122°12'0 0.0 27.9
2017-Sep-16 13:00N 14°15' W 122°12'4 1.9 27.9
2017-Sep-16 11:00N 14°12' W 122°14'0 0.0 27.9
2017-Sep-16 06:00N 14°12' W 122°14'0 0.0 27.9
2017-Sep-16 05:00N 14°12' W 122°14'1 0.6 28.0
2017-Sep-16 04:00N 14°11' W 122°14'1 0.6 28.0
2017-Sep-16 03:00N 14°11' W 122°14'2 2.4 28.0
2017-Sep-16 02:00N 14°09' W 122°14'2 1.9 28.0
2017-Sep-16 01:00N 14°11' W 122°14'2 1.9 28.0
2017-Sep-16 00:00N 14°09' W 122°14'0 0.0 28.0
2017-Sep-15 23:00N 14°09' W 122°14'1 1.3 28.1
2017-Sep-15 22:00N 14°08' W 122°13'1 0.1 28.1
2017-Sep-15 17:00N 14°08' W 122°12'1 0.6 28.0
2017-Sep-15 16:00N 14°08' W 122°11'0 0.0 28.0
2017-Sep-15 14:00N 14°08' W 122°11'1 0.8 28.0
2017-Sep-15 13:00N 14°09' W 122°11'1 0.8 28.0
2017-Sep-15 12:00N 14°08' W 122°10'4 3.6 28.0
2017-Sep-15 11:00N 14°12' W 122°10'0 0.0 28.0
2017-Sep-15 06:00N 14°12' W 122°10'1 0.8 28.1
2017-Sep-15 05:00N 14°13' W 122°11'2 1.7 28.1
2017-Sep-15 04:00N 14°14' W 122°12'0 0.0 28.1
2017-Sep-15 03:00N 14°14' W 122°12'1 0.6 28.1
2017-Sep-15 02:00N 14°13' W 122°12'2 2.4 28.1
2017-Sep-15 01:00N 14°14' W 122°14'0 0.0 28.1
2017-Sep-15 00:00N 14°14' W 122°14'0 0.0 28.1
2017-Sep-14 23:00N 14°14' W 122°14'2 0.5 28.1
2017-Sep-14 18:00N 14°14' W 122°17'2 1.7 28.1
2017-Sep-14 17:00N 14°14' W 122°19'0 0.0 28.0
2017-Sep-14 16:00N 14°14' W 122°19'0 0.0 28.0
2017-Sep-14 15:00N 14°14' W 122°19'0 0.0 28.0
2017-Sep-14 14:00N 14°14' W 122°19'1 0.6 28.0
2017-Sep-14 13:00N 14°13' W 122°19'1 0.6 28.0
2017-Sep-14 12:00N 14°13' W 122°19'3 3.0 28.0
2017-Sep-14 11:00N 14°11' W 122°21'1 0.1 28.0
2017-Sep-14 06:00N 14°11' W 122°20'1 0.6 28.1
2017-Sep-14 05:00N 14°10' W 122°20'0 0.0 28.1
2017-Sep-14 04:00N 14°10' W 122°20'0 0.0 28.1
2017-Sep-14 02:00N 14°10' W 122°20'0 0.0 -0.0
2017-Sep-14 01:00N 14°10' W 122°20'2 0.9 28.1
2017-Sep-13 23:00N 14°10' W 122°22'4 0.8 28.1
2017-Sep-13 18:00N 14°11' W 122°18'1 0.6 28.1
2017-Sep-13 17:00N 14°11' W 122°19'0 0.0 28.1
2017-Sep-13 16:00N 14°11' W 122°19'0 0.0 28.1
2017-Sep-13 15:00N 14°11' W 122°19'2 1.7 28.1
2017-Sep-13 14:00N 14°11' W 122°17'0 0.0 28.1
2017-Sep-13 13:00N 14°11' W 122°17'3 2.6 28.1
2017-Sep-13 12:00N 14°12' W 122°14'0 0.0 28.2
2017-Sep-13 11:00N 14°12' W 122°14'2 2.1 28.2
2017-Sep-13 10:00N 14°13' W 122°13'2 2.1 28.2
2017-Sep-13 09:00N 14°12' W 122°14'3 1.0 28.2
2017-Sep-13 06:00N 14°14' W 122°12'1 0.6 28.2
2017-Sep-13 05:00N 14°14' W 122°11'1 0.8 28.2
2017-Sep-13 04:00N 14°14' W 122°12'1 0.3 28.2
2017-Sep-13 02:00N 14°15' W 122°12'0 0.0 28.2
2017-Sep-13 01:00N 14°15' W 122°12'2 0.9 28.3
2017-Sep-12 23:00N 14°15' W 122°10'1 0.1 28.3
2017-Sep-12 18:00N 14°15' W 122°11'1 0.8 28.3
2017-Sep-12 17:00N 14°14' W 122°10'1 0.8 28.3
2017-Sep-12 16:00N 14°14' W 122°10'1 0.6 28.3
2017-Sep-12 15:00N 14°14' W 122°09'1 0.6 28.3
2017-Sep-12 14:00N 14°14' W 122°10'1 1.3 28.3
2017-Sep-12 13:00N 14°13' W 122°08'1 0.8 28.3
2017-Sep-12 12:00N 14°13' W 122°08'1 0.6 28.3
2017-Sep-12 11:00N 14°13' W 122°08'3 2.6 28.3
2017-Sep-12 10:00N 14°12' W 122°05'0 0.0 28.3
2017-Sep-12 06:00N 14°12' W 122°05'1 0.6 28.4
2017-Sep-12 05:00N 14°12' W 122°05'0 0.0 -0.0
2017-Sep-12 04:00N 14°12' W 122°05'2 0.6 28.4
2017-Sep-12 01:00N 14°12' W 122°03'0 0.0 28.4
2017-Sep-12 00:00N 14°12' W 122°03'1 0.8 28.4
2017-Sep-11 23:00N 14°11' W 122°02'0 0.0 28.4
2017-Sep-11 22:00N 14°11' W 122°02'0 0.0 28.5
2017-Sep-11 21:00N 14°11' W 122°02'4 1.2 28.4
2017-Sep-11 18:00N 14°11' W 121°59'   28.3

Dump ship's entire track history